DIVISION OF AGRICULTURAL PHYSICS
INDIAN AGRICULTURAL RESEARCH INSTITUTE
NEW DELHI, INDIA-110012
Phone No. 011-25843014

(IARI: Latitude: 280 38'23"N, Longitude:770 09'27"E., Altitude: 228.61m above msl.)
Duration of data : Last 60 days
Date Max.
Temp.
(oC)
Min.
Temp.
(oC)
Rainfall
(mm)
Wind
Speed
(Kmph)
Wind
Direction-I
Wind
Direction-II
Weather
condition-I
(Code 0-9)
Weather
condition-II
(Code 0-9)
RH-I
(%)
RH-II
(%)
BSS
(hrs)
Evaporation
(mm)
2018-10-18 34.2 15.2 0.00 1.7 C S 1 1 82.0 51.0 8.1 3.4
2018-10-19 31.7 13.8 0.00 1.8 C SW 1 1 81.0 42.0 6.1 3.5
2018-10-20 33.4 13.2 0.00 1.3 C NNE 1 0 83.0 44.0 5.1 2.7
2018-10-21 33.8 13.2 0.00 1.5 C N 0 0 81.0 46.0 6.2 5.0
2018-10-22 31.0 10.5 0.00 1.8 C N 0 0 96.0 64.0 4.5 5.0
2018-10-23 30.6 11.0 0.00 3.1 C N 0 0 98.0 51.0 8.0 3.1
2018-10-24 32.4 11.8 0.00 1.5 C C 0 0 94.0 44.0 8.6 3.7
2018-10-25 32.5 10.6 0.00 1.3 C N 0 0 96.0 54.0 5.9 3.8
2018-10-26 31.0 11.0 0.00 1.5 C NE 0 1 91.0 45.0 7.6 3.8
2018-10-27 30.2 11.2 0.00 1.0 C N 1 1 96.0 47.0 3.1 3.2
2018-10-28 31.0 11.5 0.00 1.0 C NW 1 0 96.0 34.0 3.5 3.0
2018-10-29 31.5 11.4 0.00 1.8 C W 1 0 95.0 49.0 7.2 3.4
2018-10-30 31.0 12.2 0.00 1.5 C NW 1 0 91.0 49.0 6.5 3.4
2018-10-31 31.0 12.5 0.00 0.9 C SE 1 1 93.0 58.0 4.0 2.9
2018-11-01 30.2 12.6 0.00 0.9 C SE 1 1 89.0 58.0 3.6 2.6
2018-11-02 29.6 13.5 0.00 0.9 C S 1 1 93.0 57.0 1.8 2.4
2018-11-03 30.2 16.4 0.00 2.8 SE SE 1 0 77.0 59.0 3.0 2.7
2018-11-04 29.5 14.5 0.00 6.7 C NW 1 0 76.0 62.0 2.7 3.0
2018-11-05 28.6 13.0 0.00 4.2 NW N 4 4 87.0 67.0 6.5 4.0
2018-11-06 25.2 13.6 0.00 4.4 NW NW 4 0 75.0 45.0 0.0 3.2
2018-11-07 27.0 8.5 0.00 4.7 C NW 1 0 69.0 46.0 8.5 3.4
2018-11-08 27.0 8.5 0.00 3.1 C C 4 4 90.0 48.0 8.0 3.5
2018-11-09 25.6 8.6 0.00 0.7 C W 4 4 92.0 50.0 0.0 3.0
2018-11-10 27.9 15.7 0.00 0.9 C C 4 4 91.0 64.0 3.7 4.7
2018-11-11 27.4 16.0 0.00 0.7 C C 4 1 87.0 46.0 0.0 2.7
2018-11-12 30.0 9.2 0.00 0.8 C NE 1 1 98.0 54.0 6.2 2.9
2018-11-13 29.0 13.0 0.00 1.1 C NE 1 1 96.0 58.0 2.9 2.6
2018-11-14 28.2 17.2 2.40 3.3 C SE 1 0 88.0 0.0 2.6 2.7
2018-11-15 27.5 14.5 1.60 2.4 C NW 1 2 84.0 67.0 4.2 3.0
2018-11-16 26.0 13.5 0.00 3.9 W NW 0 0 83.0 51.0 3.8 3.6
2018-11-17 26.0 10.6 0.00 5.7 C NW 1 1 95.0 52.0 8.3 3.2
2018-11-18 25.8 9.4 0.00 2.7 C SE 1 0 95.0 69.0 7.4 3.4
2018-11-19 27.4 15.5 0.00 2.2 S SE 1 4 84.0 64.0 6.8 3.0
2018-11-20 25.8 11.8 0.00 2.9 C NW 1 0 95.0 62.0 0.4 2.9
2018-11-21 28.0 10.0 0.00 1.8 C W 4 0 90.0 62.0 6.3 2.9
2018-11-22 27.6 9.4 0.00 1.0 C C 1 1 87.0 46.0 7.0 3.0
2018-11-23 27.5 8.6 0.00 0.9 C NW 1 0 95.0 51.0 4.8 2.9
2018-11-24 27.2 13.0 0.00 6.5 W W 0 0 82.0 61.0 7.2 3.0
2018-11-25 26.5 8.0 0.00 4.9 C W 0 0 90.0 56.0 8.2 3.0
2018-11-26 26.0 8.1 0.00 1.6 C NW 4 0 95.0 58.0 7.8 3.0
2018-11-27 26.8 8.9 0.00 2.8 C S 4 4 97.0 65.0 7.1 2.5
2018-11-28 27.0 11.9 0.00 1.7 C W 4 4 98.0 63.0 4.4 2.2
2018-11-29 26.4 10.4 0.00 1.0 C C 4 0 98.0 65.0 3.8 2.0
2018-11-30 25.5 8.9 0.00 3.6 C NW 4 4 95.0 59.0 2.2 1.9
2018-12-01 26.4 8.1 0.00 2.5 C NW 4 0 95.0 61.0 5.5 2.0
2018-12-02 25.0 7.0 0.00 2.5 C C 4 0 95.0 54.0 7.0 1.9
2018-12-03 25.8 7.2 0.00 1.0 C W 4 0 97.0 59.0 6.2 2.2
2018-12-04 25.0 7.0 0.00 1.1 C SW 4 4 97.0 59.0 5.2 2.4
2018-12-05 25.0 7.4 0.00 1.1 C NW 4 1 95.0 59.0 5.9 2.5
2018-12-06 23.7 7.2 0.00 1.7 C NW 4 4 94.0 64.0 5.7 2.4
2018-12-07 23.4 7.2 0.00 1.5 C N 4 4 97.0 56.0 2.9 2.8
2018-12-08 22.4 5.8 0.00 2.3 C W 4 0 85.0 59.0 5.4 2.0
2018-12-09 24.0 5.9 0.00 0.9 C SE 4 0 97.0 59.0 5.4 2.2
2018-12-10 23.7 6.7 0.00 0.8 C N 4 4 97.0 69.0 4.0 1.9
2018-12-11 22.0 7.4 0.00 1.7 C N 4 4 97.0 70.0 0.0 1.7
2018-12-12 21.4 11.8 0.20 0.0 SSE S 4 4 93.0 75.0 0.0 1.7
2018-12-13 21.0 10.0 0.00 1.5 C NW 1 1 95.0 72.0 0.2 1.7
2018-12-14 20.2 7.4 0.00 2.7 C W 4 0 97.0 71.0 2.1 1.8
2018-12-15 21.0 7.2 0.00 3.6 W W 4 0 92.0 70.0 6.1 2.0
2018-12-16 21.2 6.0 0.00 3.6 C W 4 0 95.0 72.0 6.7 2.2
2018-12-17 22.0 3.6 0.00 2.2 C 4 0 97.0 0.0 6.8 2.9

Abbrevations used:
I - Observations taken at 7.21 hrs. and II - Observations taken at 14:21 hrs.
Codes:
0 - Fair (clear and slightly clouded), 1 - Variable Sky, 2 - Mainly Overcast, 3 - Sand Storm or Dust Storm,4 - Fog or Thick Dust Haze, 5 - Drizzle, 6 - Rain,7 - Snow or Sleet, 8 - Shower (s), 9 - Thunder Storm with or without Precipitation